Time;durP1;ratioP1;P1;durP2;ratioP2;P2;SDS_P1;SDS_P2;PMS_P1;PMS_P2;Temp;Humidity;BMP_temperature;BMP_pressure;BME280_temperature;BME280_humidity;BME280_pressure;Samples;Min_cycle;Max_cycle;Signal;HPM_P1;HPM_P2
2023/06/19 00:00:12;;;;;;;11.80;10.80;;;21.00;99.90;;;;;;5090714;28;20995;-87
2023/06/19 00:02:42;;;;;;;11.77;10.77;;;20.80;99.90;;;;;;5090160;28;20426;-88
2023/06/19 00:05:09;;;;;;;11.17;10.27;;;20.90;99.90;;;;;;5090267;28;20418;-88
2023/06/19 00:07:37;;;;;;;12.07;10.98;;;20.90;99.90;;;;;;5090188;28;20407;-89
2023/06/19 00:10:04;;;;;;;11.88;10.85;;;20.80;99.90;;;;;;5090183;28;20399;-88
2023/06/19 00:12:30;;;;;;;11.43;10.43;;;20.80;99.90;;;;;;5090585;28;20481;-88
2023/06/19 00:14:55;;;;;;;11.47;10.47;;;20.90;99.90;;;;;;5090422;28;20989;-86
2023/06/19 00:17:21;;;;;;;11.30;10.40;;;20.80;99.90;;;;;;5125908;28;20445;-88
2023/06/19 00:19:48;;;;;;;11.53;10.47;;;20.80;99.90;;;;;;5106777;28;20434;-88
2023/06/19 00:22:15;;;;;;;11.90;10.95;;;20.90;99.90;;;;;;5108456;27;20398;-87
2023/06/19 00:24:40;;;;;;;11.15;10.25;;;20.90;99.90;;;;;;5111203;27;20802;-89
2023/06/19 00:27:06;;;;;;;11.70;10.60;;;20.90;99.90;;;;;;5093904;27;20464;-87
2023/06/19 00:29:32;;;;;;;11.90;10.90;;;20.80;99.90;;;;;;5093640;27;20525;-87
2023/06/19 00:32:01;;;;;;;11.25;10.35;;;20.90;99.90;;;;;;5093880;27;20399;-87
2023/06/19 00:34:29;;;;;;;11.30;10.33;;;20.90;99.90;;;;;;5093932;27;20456;-88
2023/06/19 00:36:56;;;;;;;11.02;10.13;;;20.70;99.90;;;;;;5110041;27;20444;-88
2023/06/19 00:39:22;;;;;;;10.82;9.82;;;20.90;99.90;;;;;;5110778;27;20451;-88
2023/06/19 00:41:51;;;;;;;10.57;9.63;;;21.00;99.90;;;;;;5093391;27;20417;-89
2023/06/19 00:44:16;;;;;;;11.02;9.93;;;20.90;99.90;;;;;;5110371;27;21021;-88
2023/06/19 00:46:42;;;;;;;10.53;9.57;;;20.90;99.90;;;;;;5093733;27;20394;-87
2023/06/19 00:49:08;;;;;;;10.35;9.50;;;21.00;99.90;;;;;;5110340;27;20394;-88
2023/06/19 00:51:34;;;;;;;10.63;9.63;;;20.90;99.90;;;;;;5110496;27;20462;-88
2023/06/19 00:54:00;;;;;;;10.73;9.73;;;21.00;99.90;;;;;;5110534;27;20477;-88
2023/06/19 00:56:26;;;;;;;9.68;8.82;;;21.20;99.90;;;;;;5110963;27;20403;-87
2023/06/19 00:58:55;;;;;;;9.52;8.63;;;21.30;99.90;;;;;;5092946;27;20409;-89
2023/06/19 01:01:24;;;;;;;10.00;9.20;;;21.00;99.90;;;;;;5093577;27;20779;-87
2023/06/19 01:03:50;;;;;;;10.40;9.50;;;20.90;99.90;;;;;;5093050;27;20399;-88
2023/06/19 01:06:22;;;;;;;11.23;10.17;;;21.10;99.90;;;;;;5109954;27;20403;-88
2023/06/19 01:09:04;;;;;;;10.60;9.60;;;21.00;99.90;;;;;;5109990;27;20391;-88
2023/06/19 01:11:47;;;;;;;10.52;9.52;;;20.90;99.90;;;;;;5093211;27;20488;-89
2023/06/19 01:14:30;;;;;;;10.18;9.27;;;21.00;99.90;;;;;;5110322;27;20409;-87
2023/06/19 01:16:56;;;;;;;9.73;8.93;;;21.00;99.90;;;;;;5093048;27;20391;-87
2023/06/19 01:19:22;;;;;;;9.70;8.80;;;20.90;99.90;;;;;;5110058;27;20447;-87
2023/06/19 01:21:50;;;;;;;9.82;9.02;;;21.00;99.90;;;;;;5110046;27;20438;-88
2023/06/19 01:24:15;;;;;;;9.88;9.05;;;20.90;99.90;;;;;;5092462;27;20422;-88
2023/06/19 01:26:45;;;;;;;9.85;9.05;;;21.00;99.90;;;;;;5110087;27;20759;-88
2023/06/19 01:29:12;;;;;;;9.50;8.70;;;21.00;99.90;;;;;;5109272;27;20902;-89
2023/06/19 01:31:47;;;;;;;9.60;8.70;;;21.10;99.90;;;;;;5109807;27;20449;-89
2023/06/19 01:34:17;;;;;;;9.23;8.35;;;20.80;99.90;;;;;;5108534;27;20403;-87
2023/06/19 01:36:43;;;;;;;9.23;8.32;;;20.90;99.90;;;;;;5092375;27;20391;-88
2023/06/19 01:39:10;;;;;;;9.05;8.15;;;20.90;99.90;;;;;;5092725;27;20395;-89
2023/06/19 01:41:37;;;;;;;9.13;8.27;;;21.00;99.90;;;;;;5108817;27;20406;-88
2023/06/19 01:44:03;;;;;;;9.02;8.13;;;20.80;99.90;;;;;;5110091;27;20495;-87
2023/06/19 01:46:29;;;;;;;9.35;8.43;;;20.90;99.90;;;;;;5092087;27;20891;-88
2023/06/19 01:48:55;;;;;;;8.90;8.15;;;20.90;99.90;;;;;;5092362;27;20459;-89
2023/06/19 01:51:20;;;;;;;8.48;7.78;;;20.90;99.90;;;;;;5092954;27;20538;-88
2023/06/19 01:53:46;;;;;;;8.48;7.63;;;20.70;99.90;;;;;;5109356;27;20394;-88
2023/06/19 01:56:12;;;;;;;8.15;7.45;;;21.00;99.90;;;;;;5109267;27;20514;-88
2023/06/19 01:58:37;;;;;;;8.13;7.40;;;20.90;99.90;;;;;;5092195;27;20399;-88
2023/06/19 02:01:03;;;;;;;8.90;8.10;;;21.00;99.90;;;;;;5092728;27;20405;-89
2023/06/19 02:03:29;;;;;;;8.30;7.60;;;21.00;99.90;;;;;;5108957;27;20914;-88
2023/06/19 02:05:55;;;;;;;7.93;7.23;;;20.90;99.90;;;;;;5091855;27;20497;-88
2023/06/19 02:08:20;;;;;;;8.50;7.32;;;21.00;99.90;;;;;;5108938;27;20804;-88
2023/06/19 02:10:46;;;;;;;8.40;7.70;;;21.20;99.90;;;;;;5109085;27;20395;-89
2023/06/19 02:13:12;;;;;;;7.72;7.03;;;21.00;99.90;;;;;;5091980;27;20398;-89
2023/06/19 02:15:38;;;;;;;8.10;7.30;;;21.00;99.90;;;;;;5109076;27;20495;-88
2023/06/19 02:18:04;;;;;;;7.65;6.95;;;21.10;99.90;;;;;;5109251;27;20402;-88
2023/06/19 02:20:30;;;;;;;8.07;7.28;;;21.10;99.90;;;;;;5108388;27;20605;-90
2023/06/19 02:22:56;;;;;;;8.95;7.60;;;21.10;99.90;;;;;;5092466;27;20407;-88
2023/06/19 02:25:21;;;;;;;8.23;7.37;;;21.20;99.90;;;;;;5091502;27;20934;-87
2023/06/19 02:27:47;;;;;;;8.27;7.47;;;21.30;99.90;;;;;;5091347;27;20391;-88
2023/06/19 02:30:13;;;;;;;8.50;7.67;;;21.30;99.90;;;;;;5091524;27;20505;-87
2023/06/19 02:32:39;;;;;;;8.02;7.28;;;21.30;99.90;;;;;;5091938;27;20499;-87
2023/06/19 02:35:10;;;;;;;8.63;7.72;;;21.20;99.90;;;;;;5091262;27;20913;-88
2023/06/19 02:37:36;;;;;;;8.18;7.38;;;21.30;99.90;;;;;;5091262;27;20402;-88
2023/06/19 02:40:04;;;;;;;8.27;7.47;;;21.30;99.90;;;;;;5091545;27;20917;-89
2023/06/19 02:42:30;;;;;;;8.60;7.83;;;21.20;99.90;;;;;;5108151;27;20403;-88
2023/06/19 02:45:02;;;;;;;7.72;7.03;;;21.20;99.90;;;;;;5126623;27;20775;-88
2023/06/19 02:47:29;;;;;;;9.25;8.30;;;21.20;99.90;;;;;;5108896;27;20418;-89
2023/06/19 02:49:55;;;;;;;9.52;8.73;;;21.10;99.90;;;;;;5108213;27;20406;-87
2023/06/19 02:52:21;;;;;;;9.82;8.75;;;21.10;99.90;;;;;;5091646;27;20461;-89
2023/06/19 02:54:46;;;;;;;10.02;9.00;;;20.90;99.90;;;;;;5091045;27;20399;-88
2023/06/19 02:57:12;;;;;;;10.50;9.60;;;20.90;99.90;;;;;;5091443;27;20495;-88
2023/06/19 02:59:38;;;;;;;10.32;9.25;;;20.70;99.90;;;;;;5108028;27;20406;-87
2023/06/19 03:02:04;;;;;;;10.20;9.27;;;20.70;99.90;;;;;;5108256;28;20766;-88
2023/06/19 03:04:29;;;;;;;9.63;8.82;;;20.60;99.90;;;;;;5107970;27;20824;-88
2023/06/19 03:06:55;;;;;;;9.53;8.73;;;20.40;99.90;;;;;;5091478;27;20406;-88
2023/06/19 03:09:20;;;;;;;8.93;8.13;;;20.50;99.90;;;;;;5091494;28;20399;-89
2023/06/19 03:11:46;;;;;;;9.00;8.30;;;20.40;99.90;;;;;;5090934;27;20414;-87
2023/06/19 03:14:11;;;;;;;8.67;7.97;;;20.40;99.90;;;;;;5108362;27;20395;-89
2023/06/19 03:16:37;;;;;;;9.48;8.38;;;20.40;99.90;;;;;;5091113;28;20394;-89
2023/06/19 03:19:03;;;;;;;9.33;8.63;;;20.40;99.90;;;;;;5091437;28;20493;-89
2023/06/19 03:21:29;;;;;;;9.23;8.35;;;20.40;99.90;;;;;;5108216;28;20410;-88
2023/06/19 03:23:54;;;;;;;8.97;8.17;;;20.30;99.90;;;;;;5108161;28;20918;-88
2023/06/19 03:26:20;;;;;;;8.75;7.95;;;20.30;99.90;;;;;;5091195;28;20902;-87
2023/06/19 03:28:47;;;;;;;9.48;8.48;;;20.40;99.90;;;;;;5090661;28;20398;-88
2023/06/19 03:31:13;;;;;;;9.55;8.50;;;20.50;99.90;;;;;;5107637;28;20410;-88
2023/06/19 03:33:39;;;;;;;9.50;8.60;;;20.30;99.90;;;;;;5090399;28;20774;-88
2023/06/19 03:36:05;;;;;;;9.17;8.27;;;20.30;99.90;;;;;;5090868;28;20409;-89
2023/06/19 03:38:31;;;;;;;9.50;8.60;;;20.20;99.90;;;;;;5107388;28;20411;-88
2023/06/19 03:40:57;;;;;;;8.87;8.07;;;20.30;99.90;;;;;;5107599;28;20403;-87
2023/06/19 03:43:22;;;;;;;8.88;7.97;;;20.10;99.90;;;;;;5091037;28;20410;-90
2023/06/19 03:45:48;;;;;;;8.37;7.53;;;20.10;99.90;;;;;;5090722;28;20427;-88
2023/06/19 03:48:13;;;;;;;8.10;7.40;;;20.30;99.90;;;;;;5090825;28;20395;-87
2023/06/19 03:50:39;;;;;;;8.40;7.10;;;20.20;99.90;;;;;;5090686;28;20925;-88
2023/06/19 03:53:05;;;;;;;7.38;6.57;;;20.20;99.90;;;;;;5091073;28;20930;-88
2023/06/19 03:55:30;;;;;;;6.15;5.55;;;20.10;99.90;;;;;;5090469;28;20579;-88
2023/06/19 03:57:56;;;;;;;6.87;6.23;;;20.10;99.90;;;;;;5093501;27;20398;-88
2023/06/19 04:00:22;;;;;;;5.80;4.55;;;20.20;99.90;;;;;;5094914;27;20407;-89
2023/06/19 04:02:47;;;;;;;5.00;4.40;;;20.10;99.90;;;;;;5094551;27;20850;-87
2023/06/19 04:05:15;;;;;;;5.53;3.92;;;20.20;99.90;;;;;;5111880;27;20525;-87
2023/06/19 04:07:41;;;;;;;4.53;3.47;;;20.20;99.90;;;;;;5111295;27;20402;-90
2023/06/19 04:10:07;;;;;;;4.35;3.38;;;20.40;99.90;;;;;;5111350;27;20910;-88
2023/06/19 04:12:33;;;;;;;3.92;3.00;;;20.20;99.90;;;;;;5111472;27;20435;-88
2023/06/19 04:14:58;;;;;;;3.55;2.60;;;20.20;99.90;;;;;;5094564;27;20399;-88
2023/06/19 04:17:24;;;;;;;3.53;2.70;;;20.20;99.90;;;;;;5094364;27;20552;-88
2023/06/19 04:19:50;;;;;;;3.10;2.57;;;20.20;99.90;;;;;;5111463;27;20448;-87
2023/06/19 04:22:15;;;;;;;4.30;2.38;;;20.30;99.90;;;;;;5094353;27;20489;-87
2023/06/19 04:24:41;;;;;;;4.47;2.30;;;20.20;99.90;;;;;;5094236;27;20871;-87
2023/06/19 04:27:10;;;;;;;4.63;2.60;;;20.10;99.90;;;;;;5094593;27;20490;-89
2023/06/19 04:29:35;;;;;;;4.53;2.20;;;20.30;99.90;;;;;;5093771;27;20410;-88
2023/06/19 04:32:03;;;;;;;3.27;2.03;;;20.20;99.90;;;;;;5111312;27;20755;-89
2023/06/19 04:34:29;;;;;;;3.15;2.10;;;20.40;99.90;;;;;;5110800;27;20402;-88
2023/06/19 04:36:58;;;;;;;2.60;2.38;;;20.20;99.90;;;;;;5111640;27;20754;-88
2023/06/19 04:39:24;;;;;;;4.07;2.10;;;20.30;99.90;;;;;;5093985;27;20395;-87
2023/06/19 04:41:50;;;;;;;3.70;2.55;;;20.60;99.90;;;;;;5110807;27;20399;-88
2023/06/19 04:44:15;;;;;;;2.80;2.53;;;20.50;99.90;;;;;;5110737;27;20426;-88
2023/06/19 04:46:43;;;;;;;3.07;2.53;;;20.50;99.90;;;;;;5110906;27;20398;-90
2023/06/19 04:49:09;;;;;;;3.15;2.35;;;20.60;99.90;;;;;;5093744;27;20410;-88
2023/06/19 04:51:35;;;;;;;5.00;2.80;;;20.70;99.90;;;;;;5110327;27;20913;-90
2023/06/19 04:54:02;;;;;;;4.15;2.85;;;20.90;99.90;;;;;;5110709;27;20405;-89
2023/06/19 04:56:28;;;;;;;4.30;2.75;;;20.80;99.90;;;;;;5093395;27;20405;-87
2023/06/19 04:58:59;;;;;;;3.75;2.88;;;20.70;99.90;;;;;;5093463;27;20459;-90
2023/06/19 05:01:30;;;;;;;4.95;3.10;;;20.90;99.90;;;;;;5110946;27;20398;-89
2023/06/19 05:03:56;;;;;;;4.00;3.03;;;21.00;99.90;;;;;;5093497;27;20405;-88
2023/06/19 05:06:25;;;;;;;3.28;2.83;;;21.00;99.90;;;;;;5110906;27;20405;-88
2023/06/19 05:08:51;;;;;;;4.38;3.25;;;21.00;99.90;;;;;;5109802;27;20484;-89
2023/06/19 05:11:16;;;;;;;4.40;3.27;;;21.10;99.90;;;;;;5110866;27;20448;-88
2023/06/19 05:13:42;;;;;;;3.63;3.30;;;21.10;99.90;;;;;;5093586;27;21019;-90
2023/06/19 05:16:07;;;;;;;4.20;3.80;;;21.30;99.90;;;;;;5093212;27;20477;-89
2023/06/19 05:18:33;;;;;;;4.97;3.80;;;21.30;99.90;;;;;;5093421;27;20443;-88
2023/06/19 05:20:59;;;;;;;4.70;4.13;;;21.20;99.90;;;;;;5093488;27;20773;-89
2023/06/19 05:23:24;;;;;;;4.53;3.93;;;21.50;99.90;;;;;;5093149;27;20399;-88
2023/06/19 05:25:50;;;;;;;4.07;3.78;;;21.20;99.90;;;;;;5092663;27;20422;-87
2023/06/19 05:28:16;;;;;;;4.57;4.13;;;21.30;99.90;;;;;;5110527;27;20402;-89
2023/06/19 05:30:41;;;;;;;4.63;4.22;;;21.60;99.90;;;;;;5106189;28;21002;-89
2023/06/19 05:33:07;;;;;;;4.93;4.43;;;21.30;99.90;;;;;;5089738;28;20470;-90
2023/06/19 05:35:33;;;;;;;5.30;4.78;;;21.50;99.90;;;;;;5106277;28;20412;-89
2023/06/19 05:37:58;;;;;;;7.43;5.60;;;21.30;99.90;;;;;;5089753;28;20487;-88
2023/06/19 05:40:24;;;;;;;6.82;5.65;;;21.30;99.90;;;;;;5089579;28;20400;-89
2023/06/19 05:42:50;;;;;;;8.33;6.63;;;21.40;99.90;;;;;;5089638;28;20491;-89
2023/06/19 05:45:16;;;;;;;6.73;5.63;;;21.30;99.90;;;;;;5106538;28;20424;-89
2023/06/19 05:47:41;;;;;;;7.37;6.67;;;21.30;99.90;;;;;;5089316;28;20439;-89
2023/06/19 05:50:07;;;;;;;7.03;6.43;;;21.40;99.90;;;;;;5089584;28;20428;-89
2023/06/19 05:52:33;;;;;;;7.15;6.45;;;21.20;99.90;;;;;;5089578;28;20432;-87
2023/06/19 05:54:59;;;;;;;8.40;7.60;;;21.20;99.90;;;;;;5089104;28;20963;-87
2023/06/19 05:57:24;;;;;;;8.37;7.57;;;21.30;99.90;;;;;;5106172;28;20982;-90
2023/06/19 05:59:50;;;;;;;8.65;7.80;;;21.20;99.90;;;;;;5106589;28;20401;-88
2023/06/19 06:02:18;;;;;;;10.43;9.50;;;21.20;99.90;;;;;;5088992;28;20396;-89
2023/06/19 06:04:44;;;;;;;11.63;10.52;;;21.30;99.90;;;;;;5088639;28;20481;-89
2023/06/19 06:07:10;;;;;;;14.35;12.95;;;21.30;99.90;;;;;;5089180;28;20912;-89
2023/06/19 06:09:35;;;;;;;14.13;12.77;;;21.40;99.90;;;;;;5088961;28;20408;-89
2023/06/19 06:12:01;;;;;;;14.45;13.10;;;21.50;99.90;;;;;;5088868;28;20436;-88
2023/06/19 06:14:27;;;;;;;17.98;16.48;;;21.40;99.90;;;;;;5089160;28;20466;-89
2023/06/19 06:16:53;;;;;;;17.60;16.10;;;21.40;99.90;;;;;;5089008;28;20497;-89
2023/06/19 06:19:20;;;;;;;20.50;18.60;;;21.50;99.90;;;;;;5088493;28;20526;-89
2023/06/19 06:21:46;;;;;;;23.08;21.05;;;21.40;99.90;;;;;;5088631;28;20405;-89
2023/06/19 06:24:11;;;;;;;22.90;20.90;;;21.30;99.90;;;;;;5089068;28;20427;-90
2023/06/19 06:26:37;;;;;;;24.20;22.20;;;21.30;99.90;;;;;;5105998;28;20786;-88
2023/06/19 06:29:03;;;;;;;24.73;22.52;;;21.30;99.90;;;;;;5105698;28;20428;-89
2023/06/19 06:31:28;;;;;;;26.67;24.30;;;21.30;99.90;;;;;;5105350;28;20536;-90
2023/06/19 06:33:54;;;;;;;26.15;23.75;;;21.30;99.90;;;;;;5105953;28;20408;-88
2023/06/19 06:36:20;;;;;;;25.57;23.07;;;21.20;99.90;;;;;;5105544;28;20412;-89
2023/06/19 06:38:45;;;;;;;25.52;23.08;;;21.30;99.90;;;;;;5088563;28;20447;-89
2023/06/19 06:41:11;;;;;;;25.05;22.67;;;21.30;99.90;;;;;;5105836;28;20400;-89
2023/06/19 06:43:38;;;;;;;24.63;22.23;;;21.40;99.90;;;;;;5105797;28;20402;-90
2023/06/19 06:46:04;;;;;;;25.13;22.63;;;21.40;99.90;;;;;;5088892;28;20507;-89
2023/06/19 06:48:30;;;;;;;27.83;25.02;;;21.50;99.90;;;;;;5105870;28;20495;-89
2023/06/19 06:51:01;;;;;;;28.50;25.60;;;21.30;99.90;;;;;;5088676;28;20458;-90
2023/06/19 06:53:33;;;;;;;29.63;26.73;;;21.20;99.90;;;;;;5105677;28;20477;-89
2023/06/19 06:55:59;;;;;;;31.33;28.13;;;21.10;99.90;;;;;;5088607;28;20771;-89
2023/06/19 06:58:26;;;;;;;32.00;28.70;;;21.00;99.90;;;;;;5088387;28;20400;-89
2023/06/19 07:00:52;;;;;;;33.97;30.38;;;20.90;99.90;;;;;;5088191;28;20400;-90
2023/06/19 07:03:18;;;;;;;38.78;33.08;;;20.70;99.90;;;;;;5088120;28;20432;-89
2023/06/19 07:05:44;;;;;;;40.70;34.90;;;20.80;99.90;;;;;;5087427;28;20447;-89
2023/06/19 07:08:09;;;;;;;44.22;36.17;;;20.70;99.90;;;;;;5088237;28;20460;-88
2023/06/19 07:10:35;;;;;;;43.93;36.90;;;20.50;99.90;;;;;;5088419;28;20397;-90
2023/06/19 07:13:00;;;;;;;41.88;36.45;;;20.50;99.90;;;;;;5088481;28;20400;-88
2023/06/19 07:15:26;;;;;;;41.87;34.77;;;20.50;99.90;;;;;;5105092;28;20389;-89
2023/06/19 07:17:52;;;;;;;42.03;34.27;;;20.60;99.90;;;;;;5088212;28;20461;-90
2023/06/19 07:20:18;;;;;;;38.42;33.03;;;20.30;99.90;;;;;;5088669;28;20900;-90
2023/06/19 07:22:44;;;;;;;43.13;34.20;;;20.20;99.90;;;;;;5088505;28;20415;-88
2023/06/19 07:25:11;;;;;;;43.10;33.25;;;20.50;99.90;;;;;;5087928;28;21163;-89
2023/06/19 07:27:37;;;;;;;41.88;33.10;;;20.20;99.90;;;;;;5088379;28;20487;-90
2023/06/19 07:30:03;;;;;;;44.17;32.70;;;20.10;99.90;;;;;;5087852;28;20486;-89
2023/06/19 07:32:28;;;;;;;40.53;31.73;;;20.10;99.90;;;;;;5090096;28;20408;-90
2023/06/19 07:34:54;;;;;;;39.60;31.00;;;20.20;99.90;;;;;;5091915;28;20396;-90
2023/06/19 07:37:20;;;;;;;37.60;30.30;;;20.10;99.90;;;;;;5092394;28;20401;-89
2023/06/19 07:39:50;;;;;;;35.13;29.10;;;20.30;99.90;;;;;;5091332;28;20916;-88
2023/06/19 07:42:17;;;;;;;37.50;28.38;;;20.30;99.90;;;;;;5092024;28;20469;-90
2023/06/19 07:44:43;;;;;;;35.00;27.60;;;20.20;99.90;;;;;;5091692;28;20830;-88
2023/06/19 07:47:09;;;;;;;31.92;26.20;;;20.10;99.90;;;;;;5092494;28;20411;-90
2023/06/19 07:49:36;;;;;;;28.85;23.90;;;20.20;99.90;;;;;;5092009;28;20388;-89
2023/06/19 07:52:05;;;;;;;27.40;23.27;;;20.00;99.90;;;;;;5091602;28;20766;-89
2023/06/19 07:54:30;;;;;;;27.67;24.08;;;20.10;99.90;;;;;;5092218;28;20404;-89
2023/06/19 07:56:56;;;;;;;27.70;23.17;;;20.20;99.90;;;;;;5091334;28;20411;-89
2023/06/19 07:59:22;;;;;;;26.65;22.65;;;20.30;99.90;;;;;;5092512;28;20945;-90
2023/06/19 08:01:48;;;;;;;25.85;22.55;;;20.40;99.90;;;;;;5091692;28;20400;-89
2023/06/19 08:04:14;;;;;;;24.00;21.45;;;20.70;99.90;;;;;;5092114;28;20434;-89
2023/06/19 08:06:39;;;;;;;23.77;20.20;;;20.90;99.90;;;;;;5091685;28;20786;-90
2023/06/19 08:09:05;;;;;;;20.57;18.43;;;20.70;99.90;;;;;;5091643;28;20404;-90
2023/06/19 08:11:31;;;;;;;19.20;17.20;;;21.00;99.90;;;;;;5091548;28;20525;-89
2023/06/19 08:13:56;;;;;;;18.73;16.20;;;21.10;99.90;;;;;;5091198;28;20933;-88
2023/06/19 08:16:22;;;;;;;18.33;16.43;;;21.10;99.90;;;;;;5108567;28;20473;-90
2023/06/19 08:18:47;;;;;;;15.52;13.63;;;21.10;99.90;;;;;;5090775;28;20393;-88
2023/06/19 08:21:13;;;;;;;14.00;12.53;;;21.20;99.90;;;;;;5091347;28;20436;-90
2023/06/19 08:23:40;;;;;;;12.43;11.13;;;21.10;99.90;;;;;;5091782;28;20411;-88
2023/06/19 08:26:07;;;;;;;12.10;10.75;;;21.20;99.90;;;;;;5091400;28;20471;-90
2023/06/19 08:28:33;;;;;;;12.63;11.43;;;21.30;99.90;;;;;;5091351;28;20431;-88
2023/06/19 08:30:59;;;;;;;12.70;11.47;;;21.20;99.90;;;;;;5091165;28;20816;-89
2023/06/19 08:33:24;;;;;;;12.93;11.63;;;21.10;99.90;;;;;;5091014;28;20973;-88
2023/06/19 08:35:50;;;;;;;14.43;12.65;;;20.90;99.90;;;;;;5090574;28;20818;-90
2023/06/19 08:38:15;;;;;;;14.07;12.57;;;21.20;99.90;;;;;;5091209;28;20519;-89
2023/06/19 08:40:45;;;;;;;13.85;12.48;;;20.90;99.90;;;;;;5091283;28;20848;-89
2023/06/19 08:43:11;;;;;;;14.13;12.77;;;20.80;99.90;;;;;;5090526;28;20991;-88
2023/06/19 08:45:37;;;;;;;14.70;13.27;;;20.70;99.90;;;;;;5091119;28;20520;-90
2023/06/19 08:48:03;;;;;;;14.75;13.32;;;20.50;99.90;;;;;;5091481;28;20491;-89
2023/06/19 08:50:32;;;;;;;14.50;13.07;;;20.60;99.90;;;;;;5108198;28;20819;-91
2023/06/19 08:52:58;;;;;;;14.82;13.43;;;20.30;99.90;;;;;;5090928;28;20445;-89
2023/06/19 08:55:24;;;;;;;15.07;13.50;;;20.40;99.90;;;;;;5091160;28;20401;-90
2023/06/19 08:57:51;;;;;;;15.73;14.07;;;20.40;99.90;;;;;;5090890;28;20403;-89
2023/06/19 09:00:28;;;;;;;13.52;12.23;;;20.60;99.90;;;;;;5091684;28;20958;-90
2023/06/19 09:03:02;;;;;;;15.18;13.68;;;20.40;99.90;;;;;;5090938;28;20577;-90
2023/06/19 09:05:28;;;;;;;16.15;14.25;;;20.50;99.90;;;;;;5090567;28;20456;-89
2023/06/19 09:08:02;;;;;;;16.10;14.45;;;20.50;99.90;;;;;;5090799;28;20428;-89
2023/06/19 09:10:28;;;;;;;16.23;14.73;;;20.70;99.90;;;;;;5089905;28;20418;-87
2023/06/19 09:13:02;;;;;;;16.17;14.37;;;20.50;99.90;;;;;;5107178;28;20400;-89
2023/06/19 09:15:30;;;;;;;15.88;14.27;;;20.50;99.90;;;;;;5089978;28;20483;-89
2023/06/19 09:18:04;;;;;;;15.65;13.93;;;20.60;99.90;;;;;;5090515;28;20400;-88
2023/06/19 09:20:31;;;;;;;15.93;14.43;;;20.70;99.90;;;;;;5090554;28;20521;-90
2023/06/19 09:22:57;;;;;;;15.27;13.70;;;20.80;99.90;;;;;;5090302;28;20387;-90
2023/06/19 09:25:23;;;;;;;14.57;13.02;;;20.90;99.90;;;;;;5090133;28;20424;-89
2023/06/19 09:27:49;;;;;;;16.13;14.25;;;21.00;99.90;;;;;;5089632;28;20404;-89
2023/06/19 09:30:16;;;;;;;15.47;13.83;;;20.90;99.90;;;;;;5089789;28;20404;-89
2023/06/19 09:32:41;;;;;;;14.45;13.07;;;20.90;99.90;;;;;;5089986;28;20407;-90
2023/06/19 09:35:07;;;;;;;14.10;12.65;;;21.00;99.90;;;;;;5089932;28;20938;-89
2023/06/19 09:37:33;;;;;;;15.07;13.57;;;21.00;99.90;;;;;;5106700;28;20400;-88
2023/06/19 09:40:10;;;;;;;15.67;13.67;;;21.20;99.90;;;;;;5090082;28;20459;-90
2023/06/19 09:42:42;;;;;;;15.07;13.48;;;21.00;99.90;;;;;;5090179;28;20431;-89
2023/06/19 09:45:11;;;;;;;15.25;13.60;;;21.10;99.90;;;;;;5106169;28;20425;-89
2023/06/19 09:47:39;;;;;;;14.57;13.17;;;21.10;99.90;;;;;;5106770;28;20435;-88
2023/06/19 09:50:06;;;;;;;14.77;13.38;;;21.10;99.90;;;;;;5089934;28;20923;-90
2023/06/19 09:52:33;;;;;;;15.55;13.88;;;21.20;99.90;;;;;;5089549;28;20403;-90
2023/06/19 09:55:05;;;;;;;14.55;13.18;;;21.20;99.90;;;;;;5088268;28;20392;-89
2023/06/19 09:57:32;;;;;;;14.43;12.93;;;21.20;99.90;;;;;;5089671;28;20408;-88
2023/06/19 09:59:59;;;;;;;15.88;13.45;;;21.30;99.90;;;;;;5089665;28;20400;-90
2023/06/19 10:02:27;;;;;;;15.45;13.88;;;21.30;99.90;;;;;;5088952;28;20621;-89
2023/06/19 10:04:57;;;;;;;14.73;13.32;;;21.20;99.90;;;;;;5089436;28;20582;-90
2023/06/19 10:07:27;;;;;;;15.10;13.40;;;21.10;99.90;;;;;;5089830;28;20406;-91
2023/06/19 10:10:07;;;;;;;15.60;14.00;;;21.40;99.90;;;;;;5089283;28;20914;-89
2023/06/19 10:12:45;;;;;;;15.20;13.70;;;21.30;99.90;;;;;;5106323;28;20412;-90
2023/06/19 10:15:20;;;;;;;15.10;13.60;;;21.30;99.90;;;;;;5089075;28;20401;-90
2023/06/19 10:17:58;;;;;;;15.77;14.27;;;21.30;99.90;;;;;;5089587;28;20404;-89
2023/06/19 10:20:32;;;;;;;16.30;14.60;;;21.30;99.90;;;;;;5089432;28;20887;-90
2023/06/19 10:23:16;;;;;;;17.23;15.43;;;21.40;99.90;;;;;;5089066;28;20405;-89
2023/06/19 10:25:45;;;;;;;17.50;15.75;;;21.60;99.90;;;;;;5088886;28;20424;-89
2023/06/19 10:28:18;;;;;;;16.85;14.60;;;21.70;99.90;;;;;;5088941;28;20768;-90
2023/06/19 10:30:44;;;;;;;16.75;15.15;;;21.80;99.90;;;;;;5088765;28;20426;-89
2023/06/19 10:33:09;;;;;;;17.57;15.67;;;21.80;99.90;;;;;;5106096;28;20404;-90
2023/06/19 10:35:41;;;;;;;16.38;14.77;;;21.70;99.90;;;;;;5088970;28;20436;-89
2023/06/19 10:38:08;;;;;;;17.65;15.77;;;21.90;99.90;;;;;;5088937;28;20404;-89
2023/06/19 10:40:36;;;;;;;16.05;14.55;;;22.30;99.90;;;;;;5088578;28;20407;-90
2023/06/19 10:43:02;;;;;;;17.08;15.35;;;22.60;99.90;;;;;;5088756;28;20396;-91
2023/06/19 10:45:28;;;;;;;17.00;15.23;;;22.90;99.90;;;;;;5088471;28;20696;-90
2023/06/19 10:47:55;;;;;;;15.73;14.10;;;23.10;99.90;;;;;;5088824;28;20419;-91
2023/06/19 10:50:22;;;;;;;15.98;14.38;;;23.10;99.90;;;;;;5088975;28;20408;-89
2023/06/19 10:52:54;;;;;;;17.00;15.25;;;23.00;99.90;;;;;;5088770;28;20403;-90
2023/06/19 10:55:19;;;;;;;16.27;14.68;;;23.10;99.90;;;;;;5088567;28;20397;-89
2023/06/19 10:57:45;;;;;;;17.90;16.00;;;23.10;99.90;;;;;;5088803;28;20391;-91
2023/06/19 11:00:12;;;;;;;16.65;14.88;;;22.90;99.90;;;;;;5088355;28;20445;-88
2023/06/19 11:02:43;;;;;;;16.17;14.57;;;23.20;99.90;;;;;;5088224;28;20426;-91
2023/06/19 11:05:11;;;;;;;15.43;13.83;;;23.50;99.90;;;;;;5088574;28;20431;-88
2023/06/19 11:07:37;;;;;;;15.57;13.98;;;23.30;99.90;;;;;;5104860;28;20747;-88
2023/06/19 11:10:03;;;;;;;15.57;13.98;;;23.20;99.90;;;;;;5105111;28;20404;-88
2023/06/19 11:12:29;;;;;;;16.77;14.98;;;22.90;99.90;;;;;;5088163;28;20399;-91
2023/06/19 11:14:54;;;;;;;16.70;15.07;;;22.90;99.90;;;;;;5088345;28;20761;-90
2023/06/19 11:17:21;;;;;;;17.02;15.38;;;22.90;99.90;;;;;;5088152;28;20408;-89
2023/06/19 11:19:47;;;;;;;16.90;15.18;;;22.80;99.90;;;;;;5087821;28;20396;-91
2023/06/19 11:22:13;;;;;;;17.10;15.45;;;22.90;99.90;;;;;;5088533;28;20757;-90
2023/06/19 11:24:48;;;;;;;18.13;16.40;;;23.10;99.90;;;;;;5104679;28;20515;-89
2023/06/19 11:27:24;;;;;;;17.50;15.80;;;23.30;99.90;;;;;;5087992;28;20404;-89
2023/06/19 11:30:03;;;;;;;18.33;16.52;;;23.40;99.90;;;;;;5104836;28;20408;-89
2023/06/19 11:32:40;;;;;;;19.02;17.10;;;23.90;99.90;;;;;;5105075;28;20389;-90
2023/06/19 11:35:11;;;;;;;17.70;16.00;;;23.80;99.90;;;;;;5088335;28;20409;-88
2023/06/19 11:37:41;;;;;;;18.60;16.70;;;23.80;99.90;;;;;;5087815;28;20461;-91
2023/06/19 11:40:15;;;;;;;17.55;15.88;;;23.80;99.90;;;;;;5088142;28;20415;-90
2023/06/19 11:42:53;;;;;;;18.65;16.88;;;23.80;99.90;;;;;;5088034;28;20555;-91
2023/06/19 11:45:18;;;;;;;16.63;15.13;;;23.70;99.90;;;;;;5087714;28;20428;-90
2023/06/19 11:47:49;;;;;;;16.42;14.95;;;23.90;99.90;;;;;;5088376;28;20413;-91
2023/06/19 11:50:19;;;;;;;16.92;15.18;;;24.30;99.90;;;;;;5087440;28;20413;-91
2023/06/19 11:52:45;;;;;;;15.07;13.67;;;24.80;99.90;;;;;;5104726;28;20796;-90
2023/06/19 11:55:10;;;;;;;15.10;13.65;;;25.10;99.90;;;;;;5105117;28;20404;-90
2023/06/19 11:57:37;;;;;;;15.18;13.70;;;25.50;99.90;;;;;;5087578;28;20435;-90
2023/06/19 12:00:08;;;;;;;14.47;13.07;;;25.80;99.20;;;;;;5104798;28;20411;-90
2023/06/19 12:02:34;;;;;;;15.75;14.25;;;26.00;99.90;;;;;;5087932;28;20497;-92
2023/06/19 12:05:00;;;;;;;14.83;13.43;;;26.20;98.00;;;;;;5087960;28;21007;-90
2023/06/19 12:07:25;;;;;;;15.55;14.02;;;26.20;94.20;;;;;;5087733;28;20495;-91
2023/06/19 12:09:51;;;;;;;14.43;13.13;;;26.10;94.20;;;;;;5088155;28;20788;-92
2023/06/19 12:12:17;;;;;;;14.65;13.25;;;26.20;98.40;;;;;;5087531;28;20497;-88
2023/06/19 12:14:43;;;;;;;15.13;13.80;;;26.40;96.90;;;;;;5106243;28;20443;-90
2023/06/19 12:17:10;;;;;;;15.87;14.37;;;26.60;93.50;;;;;;5087905;28;20457;-91
2023/06/19 12:19:35;;;;;;;14.65;13.15;;;26.50;93.70;;;;;;5091643;28;20657;-89
2023/06/19 12:22:01;;;;;;;14.10;12.90;;;26.50;96.60;;;;;;5091627;28;20400;-88
2023/06/19 12:24:27;;;;;;;14.30;12.75;;;26.50;94.30;;;;;;5091246;28;20814;-91
2023/06/19 12:26:52;;;;;;;11.87;10.67;;;26.70;95.40;;;;;;5092068;28;20427;-89
2023/06/19 12:29:20;;;;;;;11.00;9.98;;;26.70;93.10;;;;;;5109119;27;20399;-90
2023/06/19 12:31:46;;;;;;;11.05;9.95;;;26.90;96.20;;;;;;5094717;27;20526;-89
2023/06/19 12:34:12;;;;;;;11.40;10.30;;;27.20;92.30;;;;;;5094667;27;20598;-91